createdAt,value
2023-04-07T00:02:20.615Z,10.60
2023-04-07T00:04:47.472Z,9.10
2023-04-07T00:07:14.065Z,8.60
2023-04-07T00:09:40.797Z,9.10
2023-04-07T00:12:07.557Z,8.80
2023-04-07T00:14:34.515Z,10.60
2023-04-07T00:17:01.263Z,7.90
2023-04-07T00:19:28.851Z,9.90
2023-04-07T00:21:55.532Z,11.00
2023-04-07T00:24:33.864Z,9.30
2023-04-07T00:27:02.294Z,8.80
2023-04-07T00:29:29.178Z,10.20
2023-04-07T00:31:55.801Z,8.70
2023-04-07T00:34:22.759Z,9.20
2023-04-07T00:36:51.719Z,10.00
2023-04-07T00:39:18.908Z,7.80
2023-04-07T00:41:47.091Z,5.90
2023-04-07T00:44:14.008Z,8.50
2023-04-07T00:46:40.794Z,5.80
2023-04-07T00:49:10.703Z,5.90
2023-04-07T00:51:38.343Z,5.50
2023-04-07T00:54:05.952Z,5.40
2023-04-07T00:56:32.687Z,5.60
2023-04-07T00:58:59.307Z,6.50
2023-04-07T01:01:40.650Z,6.10
2023-04-07T01:06:51.671Z,7.10
2023-04-07T01:09:27.337Z,6.80
2023-04-07T01:12:35.698Z,3.70
2023-04-07T01:15:11.039Z,5.20
2023-04-07T01:17:45.992Z,5.50
2023-04-07T01:20:14.072Z,3.60
2023-04-07T01:22:54.326Z,3.40
2023-04-07T01:25:35.589Z,3.00
2023-04-07T01:28:19.933Z,3.10
2023-04-07T01:30:46.931Z,2.70
2023-04-07T01:33:14.270Z,2.90
2023-04-07T01:35:41.494Z,2.60
2023-04-07T01:38:08.891Z,2.00
2023-04-07T01:40:35.715Z,2.50
2023-04-07T01:43:21.751Z,2.40
2023-04-07T01:45:49.963Z,2.40
2023-04-07T01:48:16.747Z,2.80
2023-04-07T01:50:43.891Z,2.60
2023-04-07T01:53:10.510Z,2.70
2023-04-07T01:55:37.341Z,2.20
2023-04-07T01:58:08.439Z,2.60
2023-04-07T02:00:37.981Z,2.50
2023-04-07T02:03:20.261Z,2.30
2023-04-07T02:05:48.089Z,2.50
2023-04-07T02:08:17.736Z,2.10
2023-04-07T02:10:47.444Z,2.10
2023-04-07T02:13:18.145Z,2.50
2023-04-07T02:15:45.244Z,2.60
2023-04-07T02:18:12.865Z,2.40
2023-04-07T02:20:39.884Z,2.40
2023-04-07T02:23:09.783Z,2.60
2023-04-07T02:25:39.665Z,2.40
2023-04-07T02:28:06.634Z,2.50
2023-04-07T02:30:34.282Z,2.50
2023-04-07T02:33:01.511Z,2.70
2023-04-07T02:35:28.379Z,4.00
2023-04-07T02:37:55.064Z,2.70
2023-04-07T02:40:22.121Z,2.50
2023-04-07T02:42:48.996Z,2.80
2023-04-07T02:45:15.873Z,2.30
2023-04-07T02:47:42.552Z,3.00
2023-04-07T02:50:09.730Z,4.10
2023-04-07T02:52:36.436Z,2.70
2023-04-07T02:55:08.125Z,3.10
2023-04-07T02:57:35.162Z,2.30
2023-04-07T03:00:04.065Z,2.70
2023-04-07T03:02:46.477Z,2.60
2023-04-07T03:05:13.543Z,2.90
2023-04-07T03:07:40.854Z,3.50
2023-04-07T03:10:08.959Z,1.80
2023-04-07T03:12:36.186Z,2.40
2023-04-07T03:15:03.118Z,2.20
2023-04-07T03:17:33.070Z,3.10
2023-04-07T03:20:00.527Z,2.20
2023-04-07T03:22:27.277Z,2.40
2023-04-07T03:24:55.139Z,2.60
2023-04-07T03:27:23.532Z,2.60
2023-04-07T03:29:50.818Z,2.30
2023-04-07T03:32:17.873Z,2.50
2023-04-07T03:34:44.726Z,2.30
2023-04-07T03:37:12.629Z,2.60
2023-04-07T03:39:40.480Z,2.60
2023-04-07T03:42:21.490Z,2.80
2023-04-07T03:44:48.877Z,2.60
2023-04-07T03:47:15.559Z,2.80
2023-04-07T03:49:42.249Z,2.80
2023-04-07T03:52:09.348Z,4.80
2023-04-07T03:54:36.682Z,2.70
2023-04-07T03:57:03.468Z,2.90
2023-04-07T03:59:32.325Z,3.20
2023-04-07T04:02:02.268Z,2.90
2023-04-07T04:04:29.351Z,2.80
2023-04-07T04:06:57.062Z,3.10
2023-04-07T04:09:34.544Z,3.30
2023-04-07T04:12:01.302Z,2.90
2023-04-07T04:14:29.720Z,4.20
2023-04-07T04:17:00.009Z,3.20
2023-04-07T04:19:37.535Z,3.10
2023-04-07T04:22:11.717Z,2.70
2023-04-07T04:24:44.136Z,2.90
2023-04-07T04:27:10.980Z,2.70
2023-04-07T04:29:38.145Z,2.80
2023-04-07T04:32:05.937Z,2.80
2023-04-07T04:34:36.514Z,3.20
2023-04-07T04:37:04.143Z,3.10
2023-04-07T04:39:31.251Z,2.90
2023-04-07T04:42:01.620Z,2.90
2023-04-07T04:44:33.137Z,3.10
2023-04-07T04:47:04.257Z,3.00
2023-04-07T04:49:32.510Z,2.90
2023-04-07T04:52:02.668Z,3.70
2023-04-07T04:54:32.488Z,2.90
2023-04-07T04:57:01.010Z,3.50
2023-04-07T04:59:29.614Z,3.00
2023-04-07T05:02:00.581Z,3.10
2023-04-07T05:04:27.866Z,2.80
2023-04-07T05:07:00.600Z,3.20
2023-04-07T05:09:29.207Z,2.80
2023-04-07T05:11:57.296Z,2.70
2023-04-07T05:14:25.135Z,3.70
2023-04-07T06:04:31.296Z,2.60
2023-04-07T06:07:25.689Z,2.90
2023-04-07T06:09:52.554Z,2.60
2023-04-07T06:12:19.465Z,2.70
2023-04-07T06:14:50.592Z,2.70
2023-04-07T06:17:17.230Z,2.50
2023-04-07T06:19:47.067Z,2.40
2023-04-07T06:22:14.222Z,2.70
2023-04-07T06:24:45.121Z,2.60
2023-04-07T06:27:12.243Z,2.30
2023-04-07T06:29:40.545Z,2.50
2023-04-07T06:32:07.711Z,2.40
2023-04-07T06:34:35.821Z,2.20
2023-04-07T06:37:03.301Z,2.40
2023-04-07T06:39:30.564Z,2.20
2023-04-07T06:41:57.528Z,2.80
2023-04-07T06:44:24.288Z,6.60
2023-04-07T06:46:52.865Z,2.30
2023-04-07T06:49:23.189Z,2.60
2023-04-07T06:51:50.101Z,2.90
2023-04-07T06:54:16.933Z,3.80
2023-04-07T06:56:59.325Z,3.00
2023-04-07T06:59:25.963Z,2.70
2023-04-07T07:01:52.850Z,3.30
2023-04-07T07:04:20.806Z,3.50
2023-04-07T07:06:48.285Z,2.80
2023-04-07T07:09:15.598Z,3.90
2023-04-07T07:11:45.504Z,2.20
2023-04-07T07:14:15.326Z,3.10
2023-04-07T07:16:42.325Z,3.00
2023-04-07T07:19:17.049Z,2.80
2023-04-07T07:21:43.895Z,2.90
2023-04-07T07:24:12.540Z,2.50
2023-04-07T07:26:42.273Z,2.70
2023-04-07T07:29:10.345Z,2.70
2023-04-07T07:31:42.430Z,3.50
2023-04-07T07:34:09.359Z,2.90
2023-04-07T07:36:38.797Z,3.90
2023-04-07T07:39:06.111Z,4.10
2023-04-07T07:41:32.948Z,3.00
2023-04-07T07:43:59.692Z,3.60
2023-04-07T07:46:26.946Z,3.60
2023-04-07T07:48:58.291Z,3.30
2023-04-07T07:51:27.587Z,4.10
2023-04-07T07:53:54.204Z,4.40
2023-04-07T07:56:21.925Z,4.70
2023-04-07T07:58:50.466Z,3.70
2023-04-07T08:01:17.269Z,3.90
2023-04-07T08:03:45.942Z,3.90
2023-04-07T08:06:13.403Z,4.00
2023-04-07T08:08:41.652Z,3.50
2023-04-07T08:17:31.747Z,3.20
2023-04-07T08:20:04.736Z,3.70
2023-04-07T08:24:59.353Z,4.60
2023-04-07T08:27:30.718Z,3.50
2023-04-07T08:29:59.924Z,3.60
2023-04-07T08:32:40.697Z,3.20
2023-04-07T08:35:07.777Z,3.20
2023-04-07T08:37:35.909Z,3.30
2023-04-07T08:40:03.203Z,3.10
2023-04-07T08:42:32.670Z,3.30
2023-04-07T08:45:04.554Z,3.90
2023-04-07T08:47:32.944Z,3.80
2023-04-07T08:50:03.170Z,3.80
2023-04-07T08:52:52.540Z,3.30
2023-04-07T08:55:22.163Z,3.80
2023-04-07T08:57:50.630Z,3.30
2023-04-07T09:00:17.502Z,3.50
2023-04-07T09:02:47.332Z,3.60
2023-04-07T09:05:14.119Z,4.10
2023-04-07T09:07:42.594Z,3.80
2023-04-07T09:10:13.476Z,3.60
2023-04-07T09:12:49.555Z,3.80
2023-04-07T09:19:52.301Z,3.90
2023-04-07T09:22:39.383Z,4.40
2023-04-07T09:25:15.335Z,4.20
2023-04-07T09:27:56.615Z,4.40
2023-04-07T09:30:23.509Z,4.00
2023-04-07T09:37:26.001Z,3.90
2023-04-07T09:39:55.780Z,4.20
2023-04-07T09:42:22.662Z,3.60
2023-04-07T09:44:49.477Z,4.40
2023-04-07T09:47:17.616Z,3.90
2023-04-07T09:49:49.293Z,4.20
2023-04-07T09:52:17.011Z,3.80
2023-04-07T09:54:44.607Z,4.40
2023-04-07T09:57:13.054Z,4.20
2023-04-07T09:59:41.972Z,4.00
2023-04-07T10:02:09.158Z,4.60
2023-04-07T10:04:36.850Z,3.80
2023-04-07T10:12:00.138Z,4.10
2023-04-07T10:14:29.537Z,4.00
2023-04-07T10:17:02.146Z,4.10
2023-04-07T10:19:33.104Z,4.20
2023-04-07T10:22:00.104Z,3.90
2023-04-07T10:24:37.314Z,3.90
2023-04-07T10:27:07.200Z,4.00
2023-04-07T10:29:41.985Z,4.30
2023-04-07T10:32:09.373Z,4.10
2023-04-07T10:34:55.902Z,4.20
2023-04-07T10:37:23.688Z,4.60
2023-04-07T10:40:19.028Z,4.60
2023-04-07T10:47:19.928Z,7.20
2023-04-07T10:54:22.659Z,7.50
2023-04-07T10:57:01.998Z,5.30
2023-04-07T10:59:29.859Z,6.00
2023-04-07T11:02:22.807Z,5.50
2023-04-07T11:04:50.001Z,5.60
2023-04-07T11:07:20.594Z,7.20
2023-04-07T11:09:47.454Z,7.10
2023-04-07T11:12:23.928Z,6.00
2023-04-07T11:14:50.835Z,7.20
2023-04-07T11:17:23.698Z,5.90
2023-04-07T11:19:53.850Z,5.70
2023-04-07T11:24:50.789Z,7.10
2023-04-07T11:27:18.186Z,5.50
2023-04-07T11:29:45.116Z,5.40
2023-04-07T11:32:12.555Z,5.20
2023-04-07T11:34:39.899Z,5.70
2023-04-07T11:37:23.831Z,5.50
2023-04-07T11:39:58.107Z,6.20
2023-04-07T11:42:40.626Z,7.80
2023-04-07T11:45:17.552Z,5.40
2023-04-07T11:47:44.562Z,4.90
2023-04-07T11:50:14.432Z,5.60
2023-04-07T11:52:47.425Z,6.80
2023-04-07T11:55:22.302Z,5.50
2023-04-07T11:57:53.060Z,5.40
2023-04-07T12:00:20.484Z,5.00
2023-04-07T12:02:48.149Z,6.10
2023-04-07T12:05:15.011Z,5.20
2023-04-07T12:07:52.437Z,6.30
2023-04-07T12:10:23.441Z,6.00
2023-04-07T12:12:55.946Z,8.80
2023-04-07T12:15:23.601Z,6.00
2023-04-07T12:17:50.872Z,5.00
2023-04-07T12:20:26.724Z,7.00
2023-04-07T12:22:53.746Z,6.90
2023-04-07T12:25:21.002Z,5.50
2023-04-07T12:27:51.215Z,5.10
2023-04-07T12:30:18.295Z,10.30
2023-04-07T12:32:45.140Z,4.90
2023-04-07T12:35:11.803Z,4.90
2023-04-07T12:37:38.505Z,6.30
2023-04-07T12:44:41.853Z,5.10
2023-04-07T12:47:08.781Z,4.90
2023-04-07T12:49:35.809Z,5.70
2023-04-07T12:52:03.040Z,5.20
2023-04-07T12:54:30.673Z,5.40
2023-04-07T12:56:57.986Z,5.70
2023-04-07T12:59:25.480Z,5.20
2023-04-07T13:01:52.912Z,5.10
2023-04-07T13:04:19.975Z,4.90
2023-04-07T13:06:47.796Z,6.20
2023-04-07T13:09:14.784Z,6.30
2023-04-07T13:11:41.504Z,6.00
2023-04-07T13:14:08.308Z,5.30
2023-04-07T13:16:35.092Z,8.70
2023-04-07T13:19:01.889Z,5.70
2023-04-07T13:21:45.251Z,7.80
2023-04-07T13:24:12.679Z,6.40
2023-04-07T13:26:40.404Z,5.30
2023-04-07T13:29:07.166Z,7.50
2023-04-07T13:31:33.998Z,5.40
2023-04-07T13:38:33.991Z,6.90
2023-04-07T13:41:00.802Z,5.30
2023-04-07T13:48:11.220Z,4.80
2023-04-07T13:50:38.607Z,4.30
2023-04-07T13:53:06.121Z,6.60
2023-04-07T13:55:33.588Z,8.00
2023-04-07T13:58:00.700Z,5.10
2023-04-07T14:00:29.633Z,6.00
2023-04-07T14:03:08.101Z,4.70
2023-04-07T14:05:35.464Z,5.50
2023-04-07T14:08:02.439Z,5.10
2023-04-07T14:10:29.909Z,4.60
2023-04-07T14:12:56.972Z,6.80
2023-04-07T14:15:24.065Z,5.00
2023-04-07T14:17:51.162Z,4.70
2023-04-07T14:20:18.114Z,4.80
2023-04-07T14:22:45.325Z,5.20
2023-04-07T14:25:12.254Z,7.60
2023-04-07T14:27:40.538Z,6.60
2023-04-07T14:30:08.264Z,5.10
2023-04-07T14:32:36.019Z,8.10
2023-04-07T14:35:02.807Z,5.30
2023-04-07T14:37:30.197Z,5.80
2023-04-07T14:42:29.224Z,6.70
2023-04-07T14:49:45.353Z,5.70
2023-04-07T14:52:25.364Z,5.40
2023-04-07T14:54:54.637Z,6.50
2023-04-07T14:57:23.933Z,4.50
2023-04-07T14:59:53.646Z,4.90
2023-04-07T15:02:23.967Z,4.50
2023-04-07T15:04:54.069Z,4.90
2023-04-07T15:07:24.974Z,5.00
2023-04-07T15:09:54.968Z,5.80
2023-04-07T15:12:24.346Z,4.60
2023-04-07T15:14:55.018Z,5.60
2023-04-07T15:17:36.648Z,4.20
2023-04-07T15:20:13.469Z,4.60
2023-04-07T15:22:44.804Z,4.50
2023-04-07T15:25:15.155Z,4.10
2023-04-07T15:27:44.634Z,4.70
2023-04-07T15:30:15.012Z,3.20
2023-04-07T15:32:57.501Z,5.30
2023-04-07T15:35:27.997Z,4.90
2023-04-07T15:37:58.006Z,3.70
2023-04-07T15:40:28.136Z,3.00
2023-04-07T15:42:57.317Z,9.90
2023-04-07T15:45:27.019Z,11.10
2023-04-07T15:47:58.124Z,5.30
2023-04-07T15:50:29.554Z,7.80
2023-04-07T16:00:56.767Z,2.40
2023-04-07T16:03:27.348Z,6.20
2023-04-07T16:05:55.413Z,3.80
2023-04-07T16:08:22.146Z,3.90
2023-04-07T16:10:51.132Z,2.50
2023-04-07T16:13:18.025Z,3.20
2023-04-07T16:15:45.132Z,4.00
2023-04-07T16:18:11.914Z,3.00
2023-04-07T16:20:40.034Z,2.50
2023-04-07T16:23:10.171Z,2.70
2023-04-07T16:25:36.837Z,2.30
2023-04-07T16:28:03.514Z,4.00
2023-04-07T16:30:32.077Z,4.50
2023-04-07T16:33:16.345Z,3.50
2023-04-07T16:35:43.080Z,3.00
2023-04-07T16:38:09.843Z,4.30
2023-04-07T16:40:37.823Z,4.10
2023-04-07T16:43:05.013Z,3.00
2023-04-07T16:45:31.973Z,2.50
2023-04-07T16:47:59.173Z,3.60
2023-04-07T16:50:25.961Z,2.70
2023-04-07T16:52:54.279Z,4.00
2023-04-07T16:55:21.327Z,2.70
2023-04-07T16:57:48.889Z,3.70
2023-04-07T17:00:15.908Z,2.90
2023-04-07T17:02:44.364Z,2.90
2023-04-07T17:05:11.563Z,3.30
2023-04-07T17:07:38.591Z,3.00
2023-04-07T17:10:06.566Z,3.70
2023-04-07T17:12:35.178Z,4.10
2023-04-07T17:15:10.487Z,3.60
2023-04-07T17:17:38.994Z,6.00
2023-04-07T17:20:07.356Z,3.30
2023-04-07T17:22:34.289Z,6.00
2023-04-07T17:25:01.470Z,3.30
2023-04-07T17:27:28.496Z,3.40
2023-04-07T17:29:57.727Z,4.20
2023-04-07T17:32:25.698Z,3.50
2023-04-07T17:34:52.890Z,2.70
2023-04-07T17:37:25.827Z,3.90
2023-04-07T17:39:52.745Z,5.70
2023-04-07T17:42:19.671Z,3.70
2023-04-07T17:44:50.935Z,3.90
2023-04-07T17:47:17.929Z,5.10
2023-04-07T17:49:51.413Z,5.60
2023-04-07T17:52:18.109Z,3.90
2023-04-07T17:54:44.881Z,2.90
2023-04-07T17:57:13.640Z,5.40
2023-04-07T17:59:41.064Z,2.60
2023-04-07T18:02:09.903Z,4.60
2023-04-07T18:04:37.423Z,4.80
2023-04-07T18:07:04.408Z,2.60
2023-04-07T18:09:32.366Z,6.10
2023-04-07T18:12:02.034Z,5.80
2023-04-07T18:14:29.620Z,6.00
2023-04-07T18:16:56.463Z,3.30
2023-04-07T18:19:23.817Z,3.10
2023-04-07T18:21:53.012Z,2.50
2023-04-07T18:24:21.061Z,3.20
2023-04-07T18:26:48.068Z,3.30
2023-04-07T18:29:14.988Z,3.30
2023-04-07T18:31:42.239Z,3.10
2023-04-07T18:34:09.921Z,5.60
2023-04-07T18:36:42.574Z,3.70
2023-04-07T18:39:09.919Z,4.90
2023-04-07T18:41:36.999Z,4.10
2023-04-07T18:44:04.168Z,4.20
2023-04-07T18:46:31.146Z,6.20
2023-04-07T18:48:59.133Z,4.10
2023-04-07T18:51:27.243Z,3.40
2023-04-07T18:53:54.466Z,3.40
2023-04-07T18:56:21.655Z,4.00
2023-04-07T18:58:49.058Z,3.30
2023-04-07T19:01:16.690Z,4.00
2023-04-07T19:03:43.879Z,3.50
2023-04-07T19:06:14.504Z,5.60
2023-04-07T19:08:46.542Z,3.60
2023-04-07T19:11:13.511Z,4.80
2023-04-07T19:13:40.550Z,3.90
2023-04-07T19:16:07.718Z,4.80
2023-04-07T19:18:34.861Z,4.30
2023-04-07T19:21:02.538Z,4.40
2023-04-07T19:23:30.175Z,4.20
2023-04-07T19:25:57.047Z,4.80
2023-04-07T19:28:27.567Z,7.10
2023-04-07T19:30:55.480Z,4.60
2023-04-07T19:33:23.006Z,4.50
2023-04-07T19:35:49.839Z,4.50
2023-04-07T19:38:16.770Z,5.80
2023-04-07T19:40:43.597Z,5.20
2023-04-07T19:43:13.732Z,4.80
2023-04-07T19:45:40.590Z,5.40
2023-04-07T19:48:08.159Z,4.70
2023-04-07T19:50:40.914Z,5.50
2023-04-07T19:53:07.651Z,4.60
2023-04-07T19:55:35.427Z,4.70
2023-04-07T19:58:02.345Z,5.80
2023-04-07T20:00:34.456Z,4.20
2023-04-07T20:03:11.122Z,4.30
2023-04-07T20:05:38.336Z,5.90
2023-04-07T20:08:05.859Z,6.90
2023-04-07T20:10:32.842Z,4.20
2023-04-07T20:13:04.596Z,5.60
2023-04-07T20:15:33.216Z,6.50
2023-04-07T20:18:00.374Z,4.80
2023-04-07T20:20:27.311Z,5.70
2023-04-07T20:22:54.457Z,6.20
2023-04-07T20:25:21.822Z,5.20
2023-04-07T20:27:49.551Z,5.70
2023-04-07T20:30:16.705Z,5.20
2023-04-07T20:32:45.558Z,5.40
2023-04-07T20:35:13.996Z,4.80
2023-04-07T20:37:41.651Z,5.10
2023-04-07T20:40:11.766Z,5.20
2023-04-07T20:42:39.295Z,4.30
2023-04-07T20:45:07.266Z,4.60
2023-04-07T20:47:36.527Z,4.90
2023-04-07T20:50:05.184Z,4.80
2023-04-07T20:52:39.566Z,4.70
2023-04-07T20:55:07.441Z,5.00
2023-04-07T20:57:34.286Z,5.00
2023-04-07T21:00:03.063Z,4.80
2023-04-07T21:02:31.563Z,5.90
2023-04-07T21:04:58.510Z,6.60
2023-04-07T21:07:25.632Z,5.70
2023-04-07T21:09:52.785Z,5.50
2023-04-07T21:12:19.637Z,6.90
2023-04-07T21:14:48.620Z,5.70
2023-04-07T21:17:15.565Z,7.30
2023-04-07T21:19:42.819Z,5.20
2023-04-07T21:22:12.748Z,6.40
2023-04-07T21:24:40.292Z,7.10
2023-04-07T21:27:07.127Z,5.80
2023-04-07T21:29:34.216Z,6.40
2023-04-07T21:32:01.183Z,6.70
2023-04-07T21:34:27.856Z,7.90
2023-04-07T21:36:54.689Z,5.60
2023-04-07T21:39:21.609Z,7.00
2023-04-07T21:41:48.424Z,5.50
2023-04-07T21:44:19.450Z,5.20
2023-04-07T21:46:47.276Z,5.60
2023-04-07T21:49:15.054Z,8.90
2023-04-07T21:51:42.285Z,5.90
2023-04-07T21:54:09.556Z,6.60
2023-04-07T21:56:36.394Z,5.60
2023-04-07T21:59:03.763Z,6.30
2023-04-07T22:01:30.708Z,7.20
2023-04-07T22:03:57.806Z,8.00
2023-04-07T22:06:26.327Z,9.10
2023-04-07T22:09:01.169Z,9.10
2023-04-07T22:11:29.555Z,10.50
2023-04-07T22:13:56.481Z,9.70
2023-04-07T22:16:23.382Z,10.10
2023-04-07T22:18:50.564Z,9.20
2023-04-07T22:21:18.776Z,11.70
2023-04-07T22:23:45.799Z,9.60
2023-04-07T22:26:13.105Z,9.80
2023-04-07T22:28:40.805Z,7.80
2023-04-07T22:31:07.605Z,8.90
2023-04-07T22:33:37.371Z,8.30
2023-04-07T22:36:04.208Z,9.30
2023-04-07T22:38:35.066Z,8.20
2023-04-07T22:41:01.979Z,10.90
2023-04-07T22:43:28.922Z,11.40
2023-04-07T22:45:55.764Z,12.50
2023-04-07T22:48:22.607Z,12.80
2023-04-07T22:50:49.800Z,11.90
2023-04-07T22:53:16.801Z,12.00
2023-04-07T22:55:43.647Z,10.50
2023-04-07T22:58:10.489Z,13.60
2023-04-07T23:00:37.471Z,15.00
2023-04-07T23:03:07.295Z,13.40
2023-04-07T23:05:34.421Z,14.50
2023-04-07T23:08:01.231Z,14.10
2023-04-07T23:10:31.399Z,15.10
2023-04-07T23:13:00.044Z,18.50
2023-04-07T23:15:26.708Z,18.10
2023-04-07T23:17:56.862Z,16.50
2023-04-07T23:20:23.637Z,14.60
2023-04-07T23:22:50.431Z,15.70
2023-04-07T23:25:17.522Z,14.90
2023-04-07T23:27:44.399Z,13.20
2023-04-07T23:30:12.373Z,14.00
2023-04-07T23:32:40.327Z,13.50
2023-04-07T23:35:07.863Z,11.90
2023-04-07T23:37:35.216Z,12.80
2023-04-07T23:40:02.070Z,14.00
2023-04-07T23:42:29.102Z,9.70
2023-04-07T23:44:55.979Z,10.20
2023-04-07T23:47:23.331Z,10.10
2023-04-07T23:49:50.357Z,9.50
2023-04-07T23:52:20.873Z,10.50
2023-04-07T23:54:48.006Z,11.00
2023-04-07T23:57:15.488Z,12.40
2023-04-07T23:59:42.424Z,15.00
